Cheshire, MA

11:42 PM EDT on August 22, 2014 (GMT -0400)
Daniels Terrace | Change Station
CLOSE
Current Station
Personal Weather Station
Location: Cheshire, MA
Elevation: 1099 ft
Nearby Weather Stations

Elev 1099 ft 42.56 °N, 73.17 °W | Updated 4 minutes ago

Overcast
Overcast
61.9 °F
Feels Like 61.9 °F
N
0.0
Wind Variable Wind from East

Today
High -- | Low -- °F
--% Chance of Precip.
Yesterday
High -- | Low -- °F
Precip. -- in
6:06 AM 7:43 PM
Waning Crescent, 5% visible
Pressure 30.10 in
Visibility 10.0 miles
Clouds Mostly Cloudy 2200 ft
Mostly Cloudy 2600 ft
Overcast 6000 ft
Dew Point 60 °F
Humidity 93%
Rainfall 0.27 in
Snow Depth Not available.
UV 0 out of 12
Pollen 3.80 out of 12
PM2.5 Good
Flu Activity Not available.
METAR KAQW 230252Z AUTO 10008KT 10SM BKN022 BKN026 OVC060 18/14 A3010 RMK AO2 SLP193 T01780144 53002 $

More Conditions Fewer Conditions

Pressure 30.10 in
Visibility 10.0 miles
Clouds Mostly Cloudy 2200 ft
Mostly Cloudy 2600 ft
Overcast 6000 ft
Dew Point 60 °F
Humidity 93%
Rainfall 0.27 in
Snow Depth Not available.
UV 0 out of 12
Pollen 3.80 out of 12
PM2.5 Good
Flu Activity Not available.
METAR KAQW 230252Z AUTO 10008KT 10SM BKN022 BKN026 OVC060 18/14 A3010 RMK AO2 SLP193 T01780144 53002 $

More Conditions Fewer Conditions

10-Day Weather Forecast

Almanac

Astronomy

Aug. 22, 2014 Rise Set
Actual Time 6:06 AM EDT 7:43 PM EDT
Civil Twilight 5:37 AM EDT 8:13 PM EDT
Nautical Twilight 5:01 AM EDT 8:48 PM EDT
Astronomical Twilight 4:22 AM EDT 9:27 PM EDT
Moon 3:25 AM EDT (8/22) 5:51 PM EDT (8/22)
Length of Visible Light 14h 35m
Length of Day
13h 36m
Tomorrow will be 2m 40s shorter.
Waning Crescent, 5% of the Moon is Illuminated
Today
Waning Crescent
Aug 25
New
Sep 2
First Quarter
Sep 8
Full
Sep 15
Last Quarter

Today's Extremes

State Highs State Lows

Community

WunderPhotos

Upload Photos

1,746,352 photos uploaded!

WunderBlogs® & News

Nearby

Air Quality

  Air Quality AQ Index Pollutant
Yesterday Good
PM2.5
Yesterday Good
OZONE
Current Good
PM2.5
Friday Good
PM2.5
Friday Good
OZONE
Saturday Good
PM2.5
Saturday Good
OZONE

Snow Depth

Station Depth Elevation
No new snow has been reported.

Earthquake Activity

City Distance Mag. Time & Date
No recent earthquake activity has been reported nearby.
Minimum magnitude displayed is 2.5.

Coastal Water Temperatures

Place Temperature
No Stations Reporting

Nearby Weather Stations